createdAt,value
2023-01-19T00:00:04.000Z,-0.72
2023-01-19T00:05:04.000Z,-0.83
2023-01-19T00:10:04.000Z,-0.84
2023-01-19T00:15:04.000Z,-0.88
2023-01-19T00:20:04.000Z,-0.94
2023-01-19T00:25:04.000Z,-0.99
2023-01-19T00:30:06.000Z,-1.05
2023-01-19T00:35:04.000Z,-1.06
2023-01-19T00:40:05.000Z,-1.17
2023-01-19T00:45:00.000Z,-1.20
2023-01-19T00:50:00.000Z,-1.24
2023-01-19T00:55:00.000Z,-1.17
2023-01-19T01:00:00.000Z,-1.14
2023-01-19T01:05:00.000Z,-1.14
2023-01-19T01:10:00.000Z,-1.13
2023-01-19T01:15:00.000Z,-1.25
2023-01-19T01:20:01.000Z,-1.21
2023-01-19T01:25:00.000Z,-1.20
2023-01-19T01:30:00.000Z,-1.20
2023-01-19T01:35:00.000Z,-1.20
2023-01-19T01:40:00.000Z,-1.20
2023-01-19T01:45:00.000Z,-1.24
2023-01-19T01:50:01.000Z,-1.23
2023-01-19T01:55:00.000Z,-1.29
2023-01-19T02:00:01.000Z,-1.33
2023-01-19T02:05:00.000Z,-1.43
2023-01-19T02:10:00.000Z,-1.50
2023-01-19T02:15:00.000Z,-1.57
2023-01-19T02:20:01.000Z,-1.64
2023-01-19T02:25:01.000Z,-1.71
2023-01-19T02:30:00.000Z,-1.67
2023-01-19T02:35:00.000Z,-1.68
2023-01-19T02:40:00.000Z,-1.71
2023-01-19T02:45:00.000Z,-1.67
2023-01-19T02:50:00.000Z,-1.72
2023-01-19T02:55:00.000Z,-1.70
2023-01-19T03:00:00.000Z,-1.82
2023-01-19T03:05:01.000Z,-1.76
2023-01-19T03:10:01.000Z,-1.70
2023-01-19T03:15:01.000Z,-1.64
2023-01-19T03:20:00.000Z,-1.52
2023-01-19T03:25:01.000Z,-1.43
2023-01-19T03:30:01.000Z,-1.39
2023-01-19T03:35:00.000Z,-1.44
2023-01-19T03:40:01.000Z,-1.35
2023-01-19T03:45:00.000Z,-1.33
2023-01-19T03:50:01.000Z,-1.21
2023-01-19T03:55:00.000Z,-1.24
2023-01-19T04:00:01.000Z,-1.25
2023-01-19T04:05:00.000Z,-1.30
2023-01-19T04:10:01.000Z,-1.39
2023-01-19T04:15:01.000Z,-1.52
2023-01-19T04:20:01.000Z,-1.64
2023-01-19T04:25:01.000Z,-1.86
2023-01-19T04:30:01.000Z,-1.87
2023-01-19T04:35:01.000Z,-1.97
2023-01-19T04:40:00.000Z,-1.99
2023-01-19T04:45:01.000Z,-2.02
2023-01-19T04:50:00.000Z,-2.07
2023-01-19T04:55:01.000Z,-2.14
2023-01-19T05:00:01.000Z,-2.13
2023-01-19T05:05:00.000Z,-2.21
2023-01-19T05:10:01.000Z,-2.30
2023-01-19T05:15:00.000Z,-2.31
2023-01-19T05:20:01.000Z,-2.30
2023-01-19T05:25:01.000Z,-2.27
2023-01-19T05:30:01.000Z,-2.24
2023-01-19T05:35:01.000Z,-2.33
2023-01-19T05:40:01.000Z,-2.39
2023-01-19T05:45:00.000Z,-2.48
2023-01-19T05:50:01.000Z,-2.57
2023-01-19T05:55:00.000Z,-2.60
2023-01-19T06:00:01.000Z,-2.59
2023-01-19T06:05:01.000Z,-2.62
2023-01-19T06:10:01.000Z,-2.61
2023-01-19T06:15:00.000Z,-2.60
2023-01-19T06:20:01.000Z,-2.64
2023-01-19T06:25:01.000Z,-2.63
2023-01-19T06:30:01.000Z,-2.63
2023-01-19T06:35:01.000Z,-2.59
2023-01-19T06:40:01.000Z,-2.73
2023-01-19T06:45:01.000Z,-2.71
2023-01-19T06:50:01.000Z,-2.65
2023-01-19T06:55:01.000Z,-2.58
2023-01-19T07:00:01.000Z,-2.48
2023-01-19T07:05:01.000Z,-2.56
2023-01-19T07:10:01.000Z,-2.53
2023-01-19T07:15:01.000Z,-2.51
2023-01-19T07:20:01.000Z,-2.52
2023-01-19T07:25:01.000Z,-2.54
2023-01-19T07:30:01.000Z,-2.58
2023-01-19T07:35:01.000Z,-2.64
2023-01-19T07:40:01.000Z,-2.73
2023-01-19T07:45:01.000Z,-2.74
2023-01-19T07:50:01.000Z,-2.64
2023-01-19T07:55:01.000Z,-2.56
2023-01-19T08:00:01.000Z,-2.51
2023-01-19T08:05:01.000Z,-2.46
2023-01-19T08:10:01.000Z,-2.45
2023-01-19T08:15:01.000Z,-2.32
2023-01-19T08:20:01.000Z,-2.27
2023-01-19T08:25:01.000Z,-2.24
2023-01-19T08:30:01.000Z,-2.30
2023-01-19T08:35:01.000Z,-2.39
2023-01-19T08:40:01.000Z,-2.47
2023-01-19T08:45:01.000Z,-2.49
2023-01-19T08:50:01.000Z,-2.45
2023-01-19T08:55:01.000Z,-2.42
2023-01-19T09:00:01.000Z,-2.33
2023-01-19T09:05:01.000Z,-2.32
2023-01-19T09:10:01.000Z,-2.10
2023-01-19T09:15:01.000Z,-2.01
2023-01-19T09:20:01.000Z,-1.61
2023-01-19T09:25:02.000Z,-1.39
2023-01-19T09:30:02.000Z,-1.11
2023-01-19T09:35:02.000Z,-0.81
2023-01-19T09:40:01.000Z,-0.79
2023-01-19T09:45:01.000Z,-0.75
2023-01-19T09:50:01.000Z,-0.58
2023-01-19T09:55:03.000Z,-0.55
2023-01-19T10:00:01.000Z,-0.46
2023-01-19T10:05:01.000Z,-0.34
2023-01-19T10:10:01.000Z,-0.27
2023-01-19T10:15:01.000Z,-0.17
2023-01-19T10:20:01.000Z,-0.14
2023-01-19T10:25:01.000Z,-0.02
2023-01-19T10:30:01.000Z,0.08
2023-01-19T10:35:01.000Z,0.17
2023-01-19T10:40:01.000Z,0.23
2023-01-19T10:45:01.000Z,0.28
2023-01-19T10:50:01.000Z,0.34
2023-01-19T10:55:01.000Z,0.36
2023-01-19T11:00:01.000Z,0.42
2023-01-19T11:05:01.000Z,0.48
2023-01-19T11:10:01.000Z,0.60
2023-01-19T11:15:01.000Z,0.61
2023-01-19T11:20:01.000Z,0.72
2023-01-19T11:25:01.000Z,0.72
2023-01-19T11:30:01.000Z,0.76
2023-01-19T11:35:01.000Z,0.83
2023-01-19T11:40:01.000Z,0.90
2023-01-19T11:45:01.000Z,0.82
2023-01-19T11:50:01.000Z,0.87
2023-01-19T11:55:01.000Z,0.80
2023-01-19T12:00:01.000Z,0.86
2023-01-19T12:05:01.000Z,0.93
2023-01-19T12:10:01.000Z,1.04
2023-01-19T12:15:01.000Z,1.16
2023-01-19T12:20:01.000Z,1.13
2023-01-19T12:25:01.000Z,1.08
2023-01-19T12:30:01.000Z,1.14
2023-01-19T12:35:01.000Z,1.11
2023-01-19T12:40:01.000Z,1.13
2023-01-19T12:45:01.000Z,1.12
2023-01-19T12:50:01.000Z,1.28
2023-01-19T12:55:01.000Z,1.33
2023-01-19T13:00:01.000Z,1.39
2023-01-19T13:05:02.000Z,1.33
2023-01-19T13:10:01.000Z,1.32
2023-01-19T13:15:01.000Z,1.35
2023-01-19T13:20:02.000Z,1.31
2023-01-19T13:25:01.000Z,1.47
2023-01-19T13:30:01.000Z,1.43
2023-01-19T13:35:01.000Z,1.49
2023-01-19T13:40:01.000Z,1.48
2023-01-19T13:45:01.000Z,1.36
2023-01-19T13:50:01.000Z,1.32
2023-01-19T13:55:01.000Z,1.31
2023-01-19T14:00:01.000Z,1.34
2023-01-19T14:05:01.000Z,1.32
2023-01-19T14:10:01.000Z,1.33
2023-01-19T14:15:01.000Z,1.34
2023-01-19T14:20:01.000Z,1.37
2023-01-19T14:25:01.000Z,1.38
2023-01-19T14:30:02.000Z,1.37
2023-01-19T14:35:01.000Z,1.42
2023-01-19T14:40:01.000Z,1.31
2023-01-19T14:45:01.000Z,1.23
2023-01-19T14:50:01.000Z,1.28
2023-01-19T14:55:01.000Z,1.22
2023-01-19T15:00:02.000Z,1.22
2023-01-19T15:05:01.000Z,1.23
2023-01-19T15:10:01.000Z,1.23
2023-01-19T15:15:01.000Z,1.21
2023-01-19T15:20:01.000Z,1.18
2023-01-19T15:25:02.000Z,1.08
2023-01-19T15:30:01.000Z,1.18
2023-01-19T15:35:01.000Z,1.16
2023-01-19T15:40:01.000Z,1.10
2023-01-19T15:45:01.000Z,1.10
2023-01-19T15:50:01.000Z,1.05
2023-01-19T15:55:01.000Z,0.98
2023-01-19T16:00:02.000Z,0.87
2023-01-19T16:05:01.000Z,0.80
2023-01-19T16:10:01.000Z,0.74
2023-01-19T16:15:01.000Z,0.64
2023-01-19T16:20:01.000Z,0.55
2023-01-19T16:25:01.000Z,0.44
2023-01-19T16:30:01.000Z,0.29
2023-01-19T16:35:01.000Z,0.25
2023-01-19T16:40:01.000Z,-0.06
2023-01-19T16:45:02.000Z,-0.09
2023-01-19T16:50:01.000Z,-0.07
2023-01-19T16:55:01.000Z,-0.21
2023-01-19T17:00:02.000Z,-0.31
2023-01-19T17:05:01.000Z,-0.46
2023-01-19T17:10:01.000Z,-0.56
2023-01-19T17:15:01.000Z,-0.62
2023-01-19T17:20:01.000Z,-0.73
2023-01-19T17:25:01.000Z,-0.84
2023-01-19T17:30:01.000Z,-0.98
2023-01-19T17:35:01.000Z,-1.02
2023-01-19T17:40:01.000Z,-1.09
2023-01-19T17:45:01.000Z,-1.01
2023-01-19T17:50:01.000Z,-1.06
2023-01-19T17:55:01.000Z,-1.14
2023-01-19T18:00:01.000Z,-1.08
2023-01-19T18:05:01.000Z,-1.09
2023-01-19T18:10:01.000Z,-1.15
2023-01-19T18:15:01.000Z,-1.23
2023-01-19T18:20:01.000Z,-1.27
2023-01-19T18:25:01.000Z,-1.31
2023-01-19T18:30:01.000Z,-1.39
2023-01-19T18:35:01.000Z,-1.43
2023-01-19T18:40:01.000Z,-1.48
2023-01-19T18:45:01.000Z,-1.58
2023-01-19T18:50:01.000Z,-1.63
2023-01-19T18:55:01.000Z,-1.75
2023-01-19T19:00:03.000Z,-1.73
2023-01-19T19:05:01.000Z,-1.78
2023-01-19T19:10:01.000Z,-1.85
2023-01-19T19:15:01.000Z,-1.87
2023-01-19T19:20:01.000Z,-1.99
2023-01-19T19:25:01.000Z,-1.99
2023-01-19T19:30:01.000Z,-2.03
2023-01-19T19:35:01.000Z,-2.09
2023-01-19T19:40:01.000Z,-2.09
2023-01-19T19:45:01.000Z,-2.13
2023-01-19T19:50:01.000Z,-2.20
2023-01-19T19:55:01.000Z,-2.24
2023-01-19T20:00:01.000Z,-2.30
2023-01-19T20:05:01.000Z,-2.37
2023-01-19T20:10:01.000Z,-2.38
2023-01-19T20:15:01.000Z,-2.45
2023-01-19T20:20:01.000Z,-2.53
2023-01-19T20:25:02.000Z,-2.57
2023-01-19T20:30:02.000Z,-2.65
2023-01-19T20:35:02.000Z,-2.71
2023-01-19T20:40:02.000Z,-2.92
2023-01-19T20:45:02.000Z,-2.89
2023-01-19T20:50:02.000Z,-2.89
2023-01-19T20:55:02.000Z,-2.84
2023-01-19T21:00:03.000Z,-2.82
2023-01-19T21:05:02.000Z,-2.84
2023-01-19T21:10:01.000Z,-2.90
2023-01-19T21:15:02.000Z,-2.93
2023-01-19T21:20:02.000Z,-2.98
2023-01-19T21:25:02.000Z,-3.04
2023-01-19T21:30:02.000Z,-3.05
2023-01-19T21:35:01.000Z,-3.11
2023-01-19T21:40:01.000Z,-3.13
2023-01-19T21:45:01.000Z,-3.15
2023-01-19T21:50:02.000Z,-3.16
2023-01-19T21:55:01.000Z,-3.22
2023-01-19T22:00:01.000Z,-3.32
2023-01-19T22:05:01.000Z,-3.28
2023-01-19T22:10:01.000Z,-3.32
2023-01-19T22:15:01.000Z,-3.38
2023-01-19T22:20:01.000Z,-3.43
2023-01-19T22:25:01.000Z,-3.41
2023-01-19T22:30:01.000Z,-3.39
2023-01-19T22:35:01.000Z,-3.41
2023-01-19T22:40:01.000Z,-3.47
2023-01-19T22:45:02.000Z,-3.53
2023-01-19T22:50:01.000Z,-3.52
2023-01-19T22:55:01.000Z,-3.56
2023-01-19T23:00:02.000Z,-3.63
2023-01-19T23:05:01.000Z,-3.65
2023-01-19T23:10:01.000Z,-3.75
2023-01-19T23:15:02.000Z,-3.82
2023-01-19T23:20:01.000Z,-3.81
2023-01-19T23:25:01.000Z,-3.79
2023-01-19T23:30:01.000Z,-3.81
2023-01-19T23:35:01.000Z,-3.83
2023-01-19T23:40:01.000Z,-3.86
2023-01-19T23:45:01.000Z,-3.91
2023-01-19T23:50:01.000Z,-3.95
2023-01-19T23:55:01.000Z,-3.95
